sensor_id;sensor_type;location;lat;lon;timestamp;P1;durP1;ratioP1;P2;durP2;ratioP2
38332;SDS011;25748;46.670;14.272;2022-09-03T00:00:16;2.90;;;1.90;;
38332;SDS011;25748;46.670;14.272;2022-09-03T00:02:46;3.38;;;2.30;;
38332;SDS011;25748;46.670;14.272;2022-09-03T00:10:20;2.63;;;1.80;;
38332;SDS011;25748;46.670;14.272;2022-09-03T00:12:51;3.75;;;2.33;;
38332;SDS011;25748;46.670;14.272;2022-09-03T00:15:21;9.20;;;2.60;;
38332;SDS011;25748;46.670;14.272;2022-09-03T00:17:51;3.83;;;2.17;;
38332;SDS011;25748;46.670;14.272;2022-09-03T00:20:43;3.60;;;2.17;;
38332;SDS011;25748;46.670;14.272;2022-09-03T00:23:15;3.88;;;2.55;;
38332;SDS011;25748;46.670;14.272;2022-09-03T00:28:53;3.63;;;2.15;;
38332;SDS011;25748;46.670;14.272;2022-09-03T00:31:43;4.68;;;2.38;;
38332;SDS011;25748;46.670;14.272;2022-09-03T00:36:47;8.82;;;2.50;;
38332;SDS011;25748;46.670;14.272;2022-09-03T00:39:21;5.78;;;2.45;;
38332;SDS011;25748;46.670;14.272;2022-09-03T00:52:50;8.13;;;2.40;;
38332;SDS011;25748;46.670;14.272;2022-09-03T01:00:57;4.38;;;2.72;;
38332;SDS011;25748;46.670;14.272;2022-09-03T01:14:31;8.15;;;2.35;;
38332;SDS011;25748;46.670;14.272;2022-09-03T01:30:45;4.10;;;1.92;;
38332;SDS011;25748;46.670;14.272;2022-09-03T01:34:01;5.28;;;2.15;;
38332;SDS011;25748;46.670;14.272;2022-09-03T01:36:24;4.13;;;2.20;;
38332;SDS011;25748;46.670;14.272;2022-09-03T01:39:03;4.82;;;1.92;;
38332;SDS011;25748;46.670;14.272;2022-09-03T01:47:16;2.63;;;1.90;;
38332;SDS011;25748;46.670;14.272;2022-09-03T01:49:54;3.90;;;2.33;;
38332;SDS011;25748;46.670;14.272;2022-09-03T01:58:16;3.35;;;2.40;;
38332;SDS011;25748;46.670;14.272;2022-09-03T02:00:53;3.55;;;2.10;;
38332;SDS011;25748;46.670;14.272;2022-09-03T02:03:23;3.15;;;2.20;;
38332;SDS011;25748;46.670;14.272;2022-09-03T02:05:51;9.80;;;2.95;;
38332;SDS011;25748;46.670;14.272;2022-09-03T02:08:17;4.78;;;2.55;;
38332;SDS011;25748;46.670;14.272;2022-09-03T02:10:54;2.92;;;2.20;;
38332;SDS011;25748;46.670;14.272;2022-09-03T02:13:30;5.28;;;3.03;;
38332;SDS011;25748;46.670;14.272;2022-09-03T02:16:02;3.03;;;2.08;;
38332;SDS011;25748;46.670;14.272;2022-09-03T02:18:59;4.75;;;3.17;;
38332;SDS011;25748;46.670;14.272;2022-09-03T02:21:26;3.28;;;2.67;;
38332;SDS011;25748;46.670;14.272;2022-09-03T02:23:57;3.33;;;2.50;;
38332;SDS011;25748;46.670;14.272;2022-09-03T02:26:23;3.75;;;2.30;;
38332;SDS011;25748;46.670;14.272;2022-09-03T02:28:49;6.10;;;2.60;;
38332;SDS011;25748;46.670;14.272;2022-09-03T02:31:17;5.13;;;3.15;;
38332;SDS011;25748;46.670;14.272;2022-09-03T02:33:44;4.78;;;2.58;;
38332;SDS011;25748;46.670;14.272;2022-09-03T02:36:13;3.10;;;2.60;;
38332;SDS011;25748;46.670;14.272;2022-09-03T02:38:42;4.38;;;2.70;;
38332;SDS011;25748;46.670;14.272;2022-09-03T02:41:08;5.13;;;3.08;;
38332;SDS011;25748;46.670;14.272;2022-09-03T02:44:01;6.00;;;2.50;;
38332;SDS011;25748;46.670;14.272;2022-09-03T02:46:32;5.38;;;2.95;;
38332;SDS011;25748;46.670;14.272;2022-09-03T02:51:37;4.22;;;2.70;;
38332;SDS011;25748;46.670;14.272;2022-09-03T02:54:05;6.00;;;3.30;;
38332;SDS011;25748;46.670;14.272;2022-09-03T02:56:30;8.13;;;2.67;;
38332;SDS011;25748;46.670;14.272;2022-09-03T02:58:56;5.90;;;2.60;;
38332;SDS011;25748;46.670;14.272;2022-09-03T03:01:22;9.13;;;3.00;;
38332;SDS011;25748;46.670;14.272;2022-09-03T03:03:48;5.68;;;2.70;;
38332;SDS011;25748;46.670;14.272;2022-09-03T03:06:14;4.88;;;3.08;;
38332;SDS011;25748;46.670;14.272;2022-09-03T03:08:40;3.75;;;2.75;;
38332;SDS011;25748;46.670;14.272;2022-09-03T03:11:08;6.82;;;3.17;;
38332;SDS011;25748;46.670;14.272;2022-09-03T03:13:34;4.47;;;3.10;;
38332;SDS011;25748;46.670;14.272;2022-09-03T03:16:01;4.03;;;3.15;;
38332;SDS011;25748;46.670;14.272;2022-09-03T03:18:31;4.00;;;3.15;;
38332;SDS011;25748;46.670;14.272;2022-09-03T03:21:03;4.45;;;2.88;;
38332;SDS011;25748;46.670;14.272;2022-09-03T03:23:33;7.45;;;3.55;;
38332;SDS011;25748;46.670;14.272;2022-09-03T03:25:59;5.00;;;3.10;;
38332;SDS011;25748;46.670;14.272;2022-09-03T03:28:26;7.93;;;3.42;;
38332;SDS011;25748;46.670;14.272;2022-09-03T03:30:52;5.97;;;3.42;;
38332;SDS011;25748;46.670;14.272;2022-09-03T03:33:18;4.38;;;3.28;;
38332;SDS011;25748;46.670;14.272;2022-09-03T03:35:44;8.77;;;3.53;;
38332;SDS011;25748;46.670;14.272;2022-09-03T03:38:10;4.18;;;3.08;;
38332;SDS011;25748;46.670;14.272;2022-09-03T03:40:37;6.28;;;2.60;;
38332;SDS011;25748;46.670;14.272;2022-09-03T03:43:03;11.15;;;3.38;;
38332;SDS011;25748;46.670;14.272;2022-09-03T03:45:28;4.15;;;2.85;;
38332;SDS011;25748;46.670;14.272;2022-09-03T03:47:57;4.32;;;2.40;;
38332;SDS011;25748;46.670;14.272;2022-09-03T03:50:23;5.07;;;2.83;;
38332;SDS011;25748;46.670;14.272;2022-09-03T03:52:50;5.32;;;3.15;;
38332;SDS011;25748;46.670;14.272;2022-09-03T03:55:16;4.10;;;2.92;;
38332;SDS011;25748;46.670;14.272;2022-09-03T03:57:41;4.50;;;2.58;;
38332;SDS011;25748;46.670;14.272;2022-09-03T04:00:07;4.35;;;2.42;;
38332;SDS011;25748;46.670;14.272;2022-09-03T04:02:33;5.00;;;2.63;;
38332;SDS011;25748;46.670;14.272;2022-09-03T04:04:59;4.05;;;2.90;;
38332;SDS011;25748;46.670;14.272;2022-09-03T04:07:24;6.85;;;2.97;;
38332;SDS011;25748;46.670;14.272;2022-09-03T04:09:50;5.40;;;3.13;;
38332;SDS011;25748;46.670;14.272;2022-09-03T04:12:16;5.18;;;3.25;;
38332;SDS011;25748;46.670;14.272;2022-09-03T04:14:43;4.72;;;3.22;;
38332;SDS011;25748;46.670;14.272;2022-09-03T04:17:08;4.47;;;3.60;;
38332;SDS011;25748;46.670;14.272;2022-09-03T04:19:34;5.82;;;2.95;;
38332;SDS011;25748;46.670;14.272;2022-09-03T04:22:00;5.20;;;3.25;;
38332;SDS011;25748;46.670;14.272;2022-09-03T04:24:27;5.10;;;3.47;;
38332;SDS011;25748;46.670;14.272;2022-09-03T04:26:52;4.70;;;3.30;;
38332;SDS011;25748;46.670;14.272;2022-09-03T04:29:18;5.10;;;3.38;;
38332;SDS011;25748;46.670;14.272;2022-09-03T04:31:46;6.25;;;3.08;;
38332;SDS011;25748;46.670;14.272;2022-09-03T04:34:30;10.52;;;3.10;;
38332;SDS011;25748;46.670;14.272;2022-09-03T04:36:56;5.60;;;3.50;;
38332;SDS011;25748;46.670;14.272;2022-09-03T04:39:24;4.68;;;3.45;;
38332;SDS011;25748;46.670;14.272;2022-09-03T04:41:50;5.55;;;4.07;;
38332;SDS011;25748;46.670;14.272;2022-09-03T04:44:16;5.20;;;3.38;;
38332;SDS011;25748;46.670;14.272;2022-09-03T04:46:41;11.93;;;3.45;;
38332;SDS011;25748;46.670;14.272;2022-09-03T04:49:08;6.13;;;3.42;;
38332;SDS011;25748;46.670;14.272;2022-09-03T04:51:34;3.33;;;2.70;;
38332;SDS011;25748;46.670;14.272;2022-09-03T04:54:02;6.80;;;3.42;;
38332;SDS011;25748;46.670;14.272;2022-09-03T04:56:33;5.43;;;3.38;;
38332;SDS011;25748;46.670;14.272;2022-09-03T04:59:03;5.72;;;3.28;;
38332;SDS011;25748;46.670;14.272;2022-09-03T05:01:31;6.13;;;3.33;;
38332;SDS011;25748;46.670;14.272;2022-09-03T05:03:58;4.85;;;3.20;;
38332;SDS011;25748;46.670;14.272;2022-09-03T05:06:25;5.80;;;3.00;;
38332;SDS011;25748;46.670;14.272;2022-09-03T05:08:52;7.63;;;3.25;;
38332;SDS011;25748;46.670;14.272;2022-09-03T05:11:19;6.68;;;3.10;;
38332;SDS011;25748;46.670;14.272;2022-09-03T05:13:47;4.68;;;2.97;;
38332;SDS011;25748;46.670;14.272;2022-09-03T05:16:18;5.50;;;3.25;;
38332;SDS011;25748;46.670;14.272;2022-09-03T05:18:44;6.78;;;3.47;;
38332;SDS011;25748;46.670;14.272;2022-09-03T05:21:11;4.13;;;3.17;;
38332;SDS011;25748;46.670;14.272;2022-09-03T05:23:40;8.73;;;3.67;;
38332;SDS011;25748;46.670;14.272;2022-09-03T05:26:14;10.38;;;3.70;;
38332;SDS011;25748;46.670;14.272;2022-09-03T05:28:42;12.40;;;3.70;;
38332;SDS011;25748;46.670;14.272;2022-09-03T05:31:09;4.70;;;2.92;;
38332;SDS011;25748;46.670;14.272;2022-09-03T05:33:46;7.30;;;3.35;;
38332;SDS011;25748;46.670;14.272;2022-09-03T05:36:16;5.55;;;3.30;;
38332;SDS011;25748;46.670;14.272;2022-09-03T05:38:47;5.90;;;3.47;;
38332;SDS011;25748;46.670;14.272;2022-09-03T05:41:13;7.90;;;4.60;;
38332;SDS011;25748;46.670;14.272;2022-09-03T05:43:41;5.35;;;3.70;;
38332;SDS011;25748;46.670;14.272;2022-09-03T05:46:24;9.23;;;3.97;;
38332;SDS011;25748;46.670;14.272;2022-09-03T05:48:57;6.25;;;3.85;;
38332;SDS011;25748;46.670;14.272;2022-09-03T05:51:27;8.48;;;3.70;;
38332;SDS011;25748;46.670;14.272;2022-09-03T05:53:54;8.25;;;3.83;;
38332;SDS011;25748;46.670;14.272;2022-09-03T05:56:20;7.63;;;4.18;;
38332;SDS011;25748;46.670;14.272;2022-09-03T05:58:48;5.70;;;3.13;;
38332;SDS011;25748;46.670;14.272;2022-09-03T06:03:54;3.30;;;2.45;;
38332;SDS011;25748;46.670;14.272;2022-09-03T06:06:29;5.57;;;2.70;;
38332;SDS011;25748;46.670;14.272;2022-09-03T06:08:57;7.90;;;2.28;;
38332;SDS011;25748;46.670;14.272;2022-09-03T06:11:24;3.42;;;1.90;;
38332;SDS011;25748;46.670;14.272;2022-09-03T06:13:52;6.47;;;2.30;;
38332;SDS011;25748;46.670;14.272;2022-09-03T06:16:19;4.57;;;2.53;;
38332;SDS011;25748;46.670;14.272;2022-09-03T06:18:46;4.55;;;2.40;;
38332;SDS011;25748;46.670;14.272;2022-09-03T06:21:11;5.05;;;2.22;;
38332;SDS011;25748;46.670;14.272;2022-09-03T06:23:39;4.88;;;2.28;;
38332;SDS011;25748;46.670;14.272;2022-09-03T06:28:38;3.83;;;1.73;;
38332;SDS011;25748;46.670;14.272;2022-09-03T06:31:06;3.38;;;2.05;;
38332;SDS011;25748;46.670;14.272;2022-09-03T06:33:34;10.13;;;2.33;;
38332;SDS011;25748;46.670;14.272;2022-09-03T06:36:01;3.40;;;2.10;;
38332;SDS011;25748;46.670;14.272;2022-09-03T06:38:30;4.53;;;1.90;;
38332;SDS011;25748;46.670;14.272;2022-09-03T06:41:00;5.13;;;1.88;;
38332;SDS011;25748;46.670;14.272;2022-09-03T06:43:29;4.35;;;1.63;;
38332;SDS011;25748;46.670;14.272;2022-09-03T06:45:56;3.88;;;1.92;;
38332;SDS011;25748;46.670;14.272;2022-09-03T06:48:22;4.65;;;1.90;;
38332;SDS011;25748;46.670;14.272;2022-09-03T06:51:04;3.90;;;1.88;;
38332;SDS011;25748;46.670;14.272;2022-09-03T06:53:35;4.85;;;1.95;;
38332;SDS011;25748;46.670;14.272;2022-09-03T06:56:04;2.80;;;1.77;;
38332;SDS011;25748;46.670;14.272;2022-09-03T06:58:36;3.75;;;2.20;;
38332;SDS011;25748;46.670;14.272;2022-09-03T07:01:07;5.63;;;1.90;;
38332;SDS011;25748;46.670;14.272;2022-09-03T07:03:34;2.45;;;1.45;;
38332;SDS011;25748;46.670;14.272;2022-09-03T07:06:00;2.38;;;1.75;;
38332;SDS011;25748;46.670;14.272;2022-09-03T07:08:30;2.42;;;1.70;;
38332;SDS011;25748;46.670;14.272;2022-09-03T07:11:01;1.83;;;1.25;;
38332;SDS011;25748;46.670;14.272;2022-09-03T07:13:33;2.45;;;1.80;;
38332;SDS011;25748;46.670;14.272;2022-09-03T07:16:04;2.90;;;1.35;;
38332;SDS011;25748;46.670;14.272;2022-09-03T07:18:31;3.50;;;2.03;;
38332;SDS011;25748;46.670;14.272;2022-09-03T07:21:01;2.97;;;1.77;;
38332;SDS011;25748;46.670;14.272;2022-09-03T07:23:29;4.22;;;1.48;;
38332;SDS011;25748;46.670;14.272;2022-09-03T07:25:56;8.68;;;2.03;;
38332;SDS011;25748;46.670;14.272;2022-09-03T07:28:27;3.45;;;1.80;;
38332;SDS011;25748;46.670;14.272;2022-09-03T07:30:53;2.55;;;1.83;;
38332;SDS011;25748;46.670;14.272;2022-09-03T07:33:24;2.10;;;1.60;;
38332;SDS011;25748;46.670;14.272;2022-09-03T07:35:52;5.32;;;1.98;;
38332;SDS011;25748;46.670;14.272;2022-09-03T07:38:18;3.70;;;1.70;;
38332;SDS011;25748;46.670;14.272;2022-09-03T07:40:47;3.28;;;1.45;;
38332;SDS011;25748;46.670;14.272;2022-09-03T07:43:13;6.63;;;1.70;;
38332;SDS011;25748;46.670;14.272;2022-09-03T07:45:38;4.00;;;1.33;;
38332;SDS011;25748;46.670;14.272;2022-09-03T07:48:05;4.28;;;1.70;;
38332;SDS011;25748;46.670;14.272;2022-09-03T07:50:31;2.60;;;1.65;;
38332;SDS011;25748;46.670;14.272;2022-09-03T07:53:03;4.55;;;1.52;;
38332;SDS011;25748;46.670;14.272;2022-09-03T07:55:28;1.52;;;1.40;;
38332;SDS011;25748;46.670;14.272;2022-09-03T07:57:55;4.25;;;1.77;;
38332;SDS011;25748;46.670;14.272;2022-09-03T08:00:21;2.08;;;1.30;;
38332;SDS011;25748;46.670;14.272;2022-09-03T08:02:50;2.85;;;1.65;;
38332;SDS011;25748;46.670;14.272;2022-09-03T08:05:16;2.25;;;1.20;;
38332;SDS011;25748;46.670;14.272;2022-09-03T08:07:45;1.88;;;1.60;;
38332;SDS011;25748;46.670;14.272;2022-09-03T08:10:12;1.67;;;1.30;;
38332;SDS011;25748;46.670;14.272;2022-09-03T08:12:40;4.15;;;1.40;;
38332;SDS011;25748;46.670;14.272;2022-09-03T08:15:06;2.70;;;1.77;;
38332;SDS011;25748;46.670;14.272;2022-09-03T08:17:32;10.75;;;1.85;;
38332;SDS011;25748;46.670;14.272;2022-09-03T08:19:58;1.90;;;1.40;;
38332;SDS011;25748;46.670;14.272;2022-09-03T08:22:24;2.55;;;1.67;;
38332;SDS011;25748;46.670;14.272;2022-09-03T08:24:50;4.88;;;1.90;;
38332;SDS011;25748;46.670;14.272;2022-09-03T08:27:18;2.30;;;1.60;;
38332;SDS011;25748;46.670;14.272;2022-09-03T08:29:48;3.42;;;1.63;;
38332;SDS011;25748;46.670;14.272;2022-09-03T08:32:13;4.13;;;1.27;;
38332;SDS011;25748;46.670;14.272;2022-09-03T08:34:39;3.47;;;1.38;;
38332;SDS011;25748;46.670;14.272;2022-09-03T08:37:05;1.88;;;1.40;;
38332;SDS011;25748;46.670;14.272;2022-09-03T08:39:34;2.03;;;1.38;;
38332;SDS011;25748;46.670;14.272;2022-09-03T08:44:43;5.45;;;2.13;;
38332;SDS011;25748;46.670;14.272;2022-09-03T08:49:59;3.60;;;1.50;;
38332;SDS011;25748;46.670;14.272;2022-09-03T08:52:30;3.25;;;1.58;;
38332;SDS011;25748;46.670;14.272;2022-09-03T09:00:12;5.55;;;1.60;;
38332;SDS011;25748;46.670;14.272;2022-09-03T09:05:06;2.30;;;1.38;;
38332;SDS011;25748;46.670;14.272;2022-09-03T09:07:43;1.98;;;1.35;;
38332;SDS011;25748;46.670;14.272;2022-09-03T09:10:32;2.88;;;1.52;;
38332;SDS011;25748;46.670;14.272;2022-09-03T09:15:57;2.25;;;1.50;;
38332;SDS011;25748;46.670;14.272;2022-09-03T09:18:44;1.73;;;1.38;;
38332;SDS011;25748;46.670;14.272;2022-09-03T09:21:38;6.43;;;1.75;;
38332;SDS011;25748;46.670;14.272;2022-09-03T09:24:32;2.30;;;1.38;;
38332;SDS011;25748;46.670;14.272;2022-09-03T09:27:05;5.20;;;1.65;;
38332;SDS011;25748;46.670;14.272;2022-09-03T09:29:34;3.25;;;1.63;;
38332;SDS011;25748;46.670;14.272;2022-09-03T09:32:01;3.92;;;1.80;;
38332;SDS011;25748;46.670;14.272;2022-09-03T09:34:32;1.90;;;1.60;;
38332;SDS011;25748;46.670;14.272;2022-09-03T09:37:02;5.30;;;1.83;;
38332;SDS011;25748;46.670;14.272;2022-09-03T09:39:32;2.00;;;1.42;;
38332;SDS011;25748;46.670;14.272;2022-09-03T09:44:33;5.10;;;1.92;;
38332;SDS011;25748;46.670;14.272;2022-09-03T09:47:04;2.45;;;1.85;;
38332;SDS011;25748;46.670;14.272;2022-09-03T09:49:51;4.85;;;1.80;;
38332;SDS011;25748;46.670;14.272;2022-09-03T09:52:19;5.60;;;1.52;;
38332;SDS011;25748;46.670;14.272;2022-09-03T09:54:50;2.42;;;1.80;;
38332;SDS011;25748;46.670;14.272;2022-09-03T09:57:22;5.75;;;1.80;;
38332;SDS011;25748;46.670;14.272;2022-09-03T09:59:49;2.13;;;1.50;;
38332;SDS011;25748;46.670;14.272;2022-09-03T10:02:33;1.90;;;1.55;;
38332;SDS011;25748;46.670;14.272;2022-09-03T10:05:10;2.90;;;1.58;;
38332;SDS011;25748;46.670;14.272;2022-09-03T10:07:52;9.60;;;2.03;;
38332;SDS011;25748;46.670;14.272;2022-09-03T10:10:26;2.65;;;1.70;;
38332;SDS011;25748;46.670;14.272;2022-09-03T10:18:16;2.33;;;1.83;;
38332;SDS011;25748;46.670;14.272;2022-09-03T10:23:46;3.17;;;1.92;;
38332;SDS011;25748;46.670;14.272;2022-09-03T10:26:23;2.22;;;2.00;;
38332;SDS011;25748;46.670;14.272;2022-09-03T10:28:58;7.85;;;2.40;;
38332;SDS011;25748;46.670;14.272;2022-09-03T10:40:14;3.78;;;2.70;;
38332;SDS011;25748;46.670;14.272;2022-09-03T11:07:20;2.95;;;1.98;;
38332;SDS011;25748;46.670;14.272;2022-09-03T11:09:53;2.45;;;2.03;;
38332;SDS011;25748;46.670;14.272;2022-09-03T11:15:12;2.22;;;2.03;;
38332;SDS011;25748;46.670;14.272;2022-09-03T11:20:36;2.75;;;1.80;;
38332;SDS011;25748;46.670;14.272;2022-09-03T11:23:04;2.92;;;2.30;;
38332;SDS011;25748;46.670;14.272;2022-09-03T11:25:32;4.53;;;2.58;;
38332;SDS011;25748;46.670;14.272;2022-09-03T11:28:08;4.88;;;2.25;;
38332;SDS011;25748;46.670;14.272;2022-09-03T11:33:38;3.13;;;2.30;;
38332;SDS011;25748;46.670;14.272;2022-09-03T11:36:09;3.00;;;2.10;;
38332;SDS011;25748;46.670;14.272;2022-09-03T11:38:35;2.40;;;2.15;;
38332;SDS011;25748;46.670;14.272;2022-09-03T11:43:38;2.45;;;2.25;;
38332;SDS011;25748;46.670;14.272;2022-09-03T11:48:49;3.30;;;2.38;;
38332;SDS011;25748;46.670;14.272;2022-09-03T11:54:01;3.80;;;1.95;;
38332;SDS011;25748;46.670;14.272;2022-09-03T11:56:31;7.03;;;2.10;;
38332;SDS011;25748;46.670;14.272;2022-09-03T11:59:00;2.05;;;1.85;;
38332;SDS011;25748;46.670;14.272;2022-09-03T12:01:37;8.38;;;1.42;;
38332;SDS011;25748;46.670;14.272;2022-09-03T12:04:08;2.92;;;2.58;;
38332;SDS011;25748;46.670;14.272;2022-09-03T12:17:01;2.83;;;2.42;;
38332;SDS011;25748;46.670;14.272;2022-09-03T12:19:59;2.60;;;2.30;;
38332;SDS011;25748;46.670;14.272;2022-09-03T12:22:25;5.32;;;2.15;;
38332;SDS011;25748;46.670;14.272;2022-09-03T12:24:53;4.18;;;2.40;;
38332;SDS011;25748;46.670;14.272;2022-09-03T12:27:20;4.40;;;2.05;;
38332;SDS011;25748;46.670;14.272;2022-09-03T12:29:58;2.63;;;2.22;;
38332;SDS011;25748;46.670;14.272;2022-09-03T12:32:33;2.90;;;2.20;;
38332;SDS011;25748;46.670;14.272;2022-09-03T12:35:10;3.03;;;2.63;;
38332;SDS011;25748;46.670;14.272;2022-09-03T12:37:38;3.03;;;2.53;;
38332;SDS011;25748;46.670;14.272;2022-09-03T12:40:14;3.60;;;2.25;;
38332;SDS011;25748;46.670;14.272;2022-09-03T12:42:42;4.25;;;2.17;;
38332;SDS011;25748;46.670;14.272;2022-09-03T12:45:08;3.15;;;2.22;;
38332;SDS011;25748;46.670;14.272;2022-09-03T12:47:39;3.58;;;2.72;;
38332;SDS011;25748;46.670;14.272;2022-09-03T12:50:16;2.63;;;2.33;;
38332;SDS011;25748;46.670;14.272;2022-09-03T12:52:44;2.83;;;2.17;;
38332;SDS011;25748;46.670;14.272;2022-09-03T12:58:30;4.80;;;2.45;;
38332;SDS011;25748;46.670;14.272;2022-09-03T13:09:27;5.43;;;2.38;;
38332;SDS011;25748;46.670;14.272;2022-09-03T13:11:54;2.60;;;2.10;;
38332;SDS011;25748;46.670;14.272;2022-09-03T13:14:23;3.85;;;2.40;;
38332;SDS011;25748;46.670;14.272;2022-09-03T13:22:45;2.95;;;2.03;;
38332;SDS011;25748;46.670;14.272;2022-09-03T13:33:30;2.60;;;1.88;;
38332;SDS011;25748;46.670;14.272;2022-09-03T13:36:02;3.20;;;2.35;;
38332;SDS011;25748;46.670;14.272;2022-09-03T13:38:42;2.50;;;2.20;;
38332;SDS011;25748;46.670;14.272;2022-09-03T13:41:17;2.13;;;1.92;;
38332;SDS011;25748;46.670;14.272;2022-09-03T13:44:00;3.58;;;2.15;;
38332;SDS011;25748;46.670;14.272;2022-09-03T13:52:19;3.05;;;1.90;;
38332;SDS011;25748;46.670;14.272;2022-09-03T13:54:55;2.72;;;2.10;;
38332;SDS011;25748;46.670;14.272;2022-09-03T14:00:10;4.00;;;2.10;;
38332;SDS011;25748;46.670;14.272;2022-09-03T14:08:00;2.58;;;2.38;;
38332;SDS011;25748;46.670;14.272;2022-09-03T14:13:27;2.40;;;2.20;;
38332;SDS011;25748;46.670;14.272;2022-09-03T14:27:29;2.88;;;1.92;;
38332;SDS011;25748;46.670;14.272;2022-09-03T14:30:06;4.13;;;1.65;;
38332;SDS011;25748;46.670;14.272;2022-09-03T14:32:57;2.42;;;1.77;;
38332;SDS011;25748;46.670;14.272;2022-09-03T15:11:27;1.80;;;1.50;;
38332;SDS011;25748;46.670;14.272;2022-09-03T15:14:02;3.55;;;2.70;;
38332;SDS011;25748;46.670;14.272;2022-09-03T15:16:52;2.25;;;1.50;;
38332;SDS011;25748;46.670;14.272;2022-09-03T15:28:14;5.47;;;1.42;;
38332;SDS011;25748;46.670;14.272;2022-09-03T15:30:55;1.92;;;1.30;;
38332;SDS011;25748;46.670;14.272;2022-09-03T15:33:30;2.20;;;1.45;;
38332;SDS011;25748;46.670;14.272;2022-09-03T15:39:04;3.85;;;1.60;;
38332;SDS011;25748;46.670;14.272;2022-09-03T15:41:49;1.83;;;1.33;;
38332;SDS011;25748;46.670;14.272;2022-09-03T15:44:24;2.13;;;1.33;;
38332;SDS011;25748;46.670;14.272;2022-09-03T15:46:59;3.60;;;1.27;;
38332;SDS011;25748;46.670;14.272;2022-09-03T15:55:32;1.88;;;1.35;;
38332;SDS011;25748;46.670;14.272;2022-09-03T16:03:12;1.35;;;1.00;;
38332;SDS011;25748;46.670;14.272;2022-09-03T16:05:45;1.85;;;1.10;;
38332;SDS011;25748;46.670;14.272;2022-09-03T16:11:08;1.15;;;0.90;;
38332;SDS011;25748;46.670;14.272;2022-09-03T16:13:48;1.73;;;1.13;;
38332;SDS011;25748;46.670;14.272;2022-09-03T16:16:27;5.45;;;1.25;;
38332;SDS011;25748;46.670;14.272;2022-09-03T16:25:18;1.23;;;0.98;;
38332;SDS011;25748;46.670;14.272;2022-09-03T16:27:57;1.20;;;0.80;;
38332;SDS011;25748;46.670;14.272;2022-09-03T16:35:47;2.38;;;1.00;;
38332;SDS011;25748;46.670;14.272;2022-09-03T16:49:18;1.73;;;1.00;;
38332;SDS011;25748;46.670;14.272;2022-09-03T16:55:01;2.97;;;0.98;;
38332;SDS011;25748;46.670;14.272;2022-09-03T17:02:50;3.50;;;1.33;;
38332;SDS011;25748;46.670;14.272;2022-09-03T17:13:51;2.70;;;1.33;;
38332;SDS011;25748;46.670;14.272;2022-09-03T17:16:41;4.07;;;1.63;;
38332;SDS011;25748;46.670;14.272;2022-09-03T17:25:23;2.42;;;1.15;;
38332;SDS011;25748;46.670;14.272;2022-09-03T17:36:13;1.45;;;0.82;;
38332;SDS011;25748;46.670;14.272;2022-09-03T17:41:49;2.00;;;0.88;;
38332;SDS011;25748;46.670;14.272;2022-09-03T17:44:22;1.90;;;1.33;;
38332;SDS011;25748;46.670;14.272;2022-09-03T17:50:22;1.45;;;1.17;;
38332;SDS011;25748;46.670;14.272;2022-09-03T17:53:01;3.80;;;1.30;;
38332;SDS011;25748;46.670;14.272;2022-09-03T17:55:55;1.70;;;1.15;;
38332;SDS011;25748;46.670;14.272;2022-09-03T17:58:40;3.80;;;1.00;;
38332;SDS011;25748;46.670;14.272;2022-09-03T18:01:17;2.17;;;1.58;;
38332;SDS011;25748;46.670;14.272;2022-09-03T18:11:48;1.77;;;0.90;;
38332;SDS011;25748;46.670;14.272;2022-09-03T18:14:20;1.42;;;1.15;;
38332;SDS011;25748;46.670;14.272;2022-09-03T18:17:03;1.73;;;1.00;;
38332;SDS011;25748;46.670;14.272;2022-09-03T18:20:06;4.20;;;1.08;;
38332;SDS011;25748;46.670;14.272;2022-09-03T18:22:51;2.60;;;1.02;;
38332;SDS011;25748;46.670;14.272;2022-09-03T18:25:37;4.78;;;0.88;;
38332;SDS011;25748;46.670;14.272;2022-09-03T18:28:34;2.00;;;1.15;;
38332;SDS011;25748;46.670;14.272;2022-09-03T18:31:27;2.40;;;1.65;;
38332;SDS011;25748;46.670;14.272;2022-09-03T18:34:11;2.00;;;1.00;;
38332;SDS011;25748;46.670;14.272;2022-09-03T18:36:56;1.40;;;1.10;;
38332;SDS011;25748;46.670;14.272;2022-09-03T18:39:42;1.63;;;1.10;;
38332;SDS011;25748;46.670;14.272;2022-09-03T18:51:58;2.38;;;1.40;;
38332;SDS011;25748;46.670;14.272;2022-09-03T19:01:29;1.88;;;1.17;;
38332;SDS011;25748;46.670;14.272;2022-09-03T19:04:00;3.80;;;1.30;;
38332;SDS011;25748;46.670;14.272;2022-09-03T19:10:16;2.67;;;1.38;;
38332;SDS011;25748;46.670;14.272;2022-09-03T19:16:17;1.63;;;1.33;;
38332;SDS011;25748;46.670;14.272;2022-09-03T19:22:10;6.22;;;2.00;;
38332;SDS011;25748;46.670;14.272;2022-09-03T19:25:03;18.20;;;2.85;;
38332;SDS011;25748;46.670;14.272;2022-09-03T19:37:22;7.32;;;1.50;;
38332;SDS011;25748;46.670;14.272;2022-09-03T19:40:28;3.08;;;1.35;;
38332;SDS011;25748;46.670;14.272;2022-09-03T19:43:35;5.45;;;2.47;;
38332;SDS011;25748;46.670;14.272;2022-09-03T19:52:54;5.18;;;1.80;;
38332;SDS011;25748;46.670;14.272;2022-09-03T19:55:53;6.35;;;2.92;;
38332;SDS011;25748;46.670;14.272;2022-09-03T19:58:44;3.92;;;2.30;;
38332;SDS011;25748;46.670;14.272;2022-09-03T20:01:44;4.85;;;2.60;;
38332;SDS011;25748;46.670;14.272;2022-09-03T20:04:31;4.25;;;2.30;;
38332;SDS011;25748;46.670;14.272;2022-09-03T20:07:25;2.75;;;1.63;;
38332;SDS011;25748;46.670;14.272;2022-09-03T20:10:11;2.72;;;1.55;;
38332;SDS011;25748;46.670;14.272;2022-09-03T20:12:49;3.38;;;1.70;;
38332;SDS011;25748;46.670;14.272;2022-09-03T20:15:29;2.55;;;1.88;;
38332;SDS011;25748;46.670;14.272;2022-09-03T20:18:08;4.43;;;2.08;;
38332;SDS011;25748;46.670;14.272;2022-09-03T20:20:54;2.22;;;1.48;;
38332;SDS011;25748;46.670;14.272;2022-09-03T20:29:31;2.90;;;1.60;;
38332;SDS011;25748;46.670;14.272;2022-09-03T20:32:10;4.13;;;1.73;;
38332;SDS011;25748;46.670;14.272;2022-09-03T20:34:59;1.75;;;1.40;;
38332;SDS011;25748;46.670;14.272;2022-09-03T20:48:49;2.95;;;1.60;;
38332;SDS011;25748;46.670;14.272;2022-09-03T20:51:24;2.22;;;1.55;;
38332;SDS011;25748;46.670;14.272;2022-09-03T20:54:09;3.17;;;1.73;;
38332;SDS011;25748;46.670;14.272;2022-09-03T21:02:38;2.33;;;1.58;;
38332;SDS011;25748;46.670;14.272;2022-09-03T21:12:46;10.07;;;3.30;;
38332;SDS011;25748;46.670;14.272;2022-09-03T21:18:27;10.68;;;4.85;;
38332;SDS011;25748;46.670;14.272;2022-09-03T21:23:35;5.97;;;2.70;;
38332;SDS011;25748;46.670;14.272;2022-09-03T21:26:09;3.67;;;2.50;;
38332;SDS011;25748;46.670;14.272;2022-09-03T21:31:43;5.72;;;2.17;;
38332;SDS011;25748;46.670;14.272;2022-09-03T21:34:16;3.60;;;2.30;;
38332;SDS011;25748;46.670;14.272;2022-09-03T21:36:44;3.67;;;1.98;;
38332;SDS011;25748;46.670;14.272;2022-09-03T21:39:47;7.35;;;2.22;;
38332;SDS011;25748;46.670;14.272;2022-09-03T21:47:10;2.90;;;2.03;;
38332;SDS011;25748;46.670;14.272;2022-09-03T21:49:53;2.92;;;1.80;;
38332;SDS011;25748;46.670;14.272;2022-09-03T21:57:56;4.20;;;2.50;;
38332;SDS011;25748;46.670;14.272;2022-09-03T22:00:44;3.55;;;2.38;;
38332;SDS011;25748;46.670;14.272;2022-09-03T22:03:10;8.73;;;2.83;;
38332;SDS011;25748;46.670;14.272;2022-09-03T22:05:46;4.35;;;2.40;;
38332;SDS011;25748;46.670;14.272;2022-09-03T22:13:40;3.67;;;2.63;;
38332;SDS011;25748;46.670;14.272;2022-09-03T22:19:03;5.32;;;2.45;;
38332;SDS011;25748;46.670;14.272;2022-09-03T22:21:35;3.95;;;2.58;;
38332;SDS011;25748;46.670;14.272;2022-09-03T22:30:09;3.58;;;2.58;;
38332;SDS011;25748;46.670;14.272;2022-09-03T22:35:57;5.50;;;2.83;;
38332;SDS011;25748;46.670;14.272;2022-09-03T22:38:33;4.22;;;2.67;;